sensor_id;sensor_type;location;lat;lon;timestamp;P1;durP1;ratioP1;P2;durP2;ratioP2
8592;SDS011;4334;49.982;8.398;2022-09-03T00:00:18;3.50;;;1.60;;
8592;SDS011;4334;49.982;8.398;2022-09-03T00:02:46;1.97;;;1.77;;
8592;SDS011;4334;49.982;8.398;2022-09-03T00:05:19;4.37;;;1.63;;
8592;SDS011;4334;49.982;8.398;2022-09-03T00:07:52;3.17;;;1.50;;
8592;SDS011;4334;49.982;8.398;2022-09-03T00:10:24;1.87;;;1.50;;
8592;SDS011;4334;49.982;8.398;2022-09-03T00:12:58;3.73;;;1.67;;
8592;SDS011;4334;49.982;8.398;2022-09-03T00:15:27;1.90;;;1.70;;
8592;SDS011;4334;49.982;8.398;2022-09-03T00:17:59;2.20;;;1.50;;
8592;SDS011;4334;49.982;8.398;2022-09-03T00:20:30;1.90;;;1.50;;
8592;SDS011;4334;49.982;8.398;2022-09-03T00:23:02;2.50;;;1.70;;
8592;SDS011;4334;49.982;8.398;2022-09-03T00:25:32;2.10;;;1.30;;
8592;SDS011;4334;49.982;8.398;2022-09-03T00:28:03;2.10;;;1.60;;
8592;SDS011;4334;49.982;8.398;2022-09-03T00:30:34;2.20;;;1.60;;
8592;SDS011;4334;49.982;8.398;2022-09-03T00:33:02;1.93;;;1.50;;
8592;SDS011;4334;49.982;8.398;2022-09-03T00:35:36;2.50;;;1.60;;
8592;SDS011;4334;49.982;8.398;2022-09-03T00:38:07;8.07;;;1.70;;
8592;SDS011;4334;49.982;8.398;2022-09-03T00:40:36;2.33;;;1.40;;
8592;SDS011;4334;49.982;8.398;2022-09-03T00:43:14;1.50;;;1.33;;
8592;SDS011;4334;49.982;8.398;2022-09-03T00:45:49;2.33;;;1.40;;
8592;SDS011;4334;49.982;8.398;2022-09-03T00:48:28;2.47;;;1.47;;
8592;SDS011;4334;49.982;8.398;2022-09-03T00:51:01;1.70;;;1.40;;
8592;SDS011;4334;49.982;8.398;2022-09-03T00:53:38;2.77;;;1.70;;
8592;SDS011;4334;49.982;8.398;2022-09-03T00:56:18;1.70;;;1.60;;
8592;SDS011;4334;49.982;8.398;2022-09-03T00:58:57;2.03;;;1.53;;
8592;SDS011;4334;49.982;8.398;2022-09-03T01:01:29;1.50;;;1.40;;
8592;SDS011;4334;49.982;8.398;2022-09-03T01:04:07;1.67;;;1.50;;
8592;SDS011;4334;49.982;8.398;2022-09-03T01:06:46;3.57;;;1.70;;
8592;SDS011;4334;49.982;8.398;2022-09-03T01:09:22;1.80;;;1.30;;
8592;SDS011;4334;49.982;8.398;2022-09-03T01:12:00;2.57;;;1.40;;
8592;SDS011;4334;49.982;8.398;2022-09-03T01:14:41;2.17;;;1.50;;
8592;SDS011;4334;49.982;8.398;2022-09-03T01:17:18;3.40;;;1.53;;
8592;SDS011;4334;49.982;8.398;2022-09-03T01:19:57;2.00;;;1.30;;
8592;SDS011;4334;49.982;8.398;2022-09-03T01:22:43;2.17;;;1.70;;
8592;SDS011;4334;49.982;8.398;2022-09-03T01:25:37;2.37;;;1.50;;
8592;SDS011;4334;49.982;8.398;2022-09-03T01:28:18;1.73;;;1.50;;
8592;SDS011;4334;49.982;8.398;2022-09-03T01:30:52;2.17;;;1.57;;
8592;SDS011;4334;49.982;8.398;2022-09-03T01:33:25;1.40;;;1.30;;
8592;SDS011;4334;49.982;8.398;2022-09-03T01:36:01;1.53;;;1.30;;
8592;SDS011;4334;49.982;8.398;2022-09-03T01:38:37;2.27;;;1.50;;
8592;SDS011;4334;49.982;8.398;2022-09-03T01:41:09;3.77;;;1.60;;
8592;SDS011;4334;49.982;8.398;2022-09-03T01:44:05;2.20;;;1.60;;
8592;SDS011;4334;49.982;8.398;2022-09-03T01:46:43;1.90;;;1.33;;
8592;SDS011;4334;49.982;8.398;2022-09-03T01:49:16;1.83;;;1.50;;
8592;SDS011;4334;49.982;8.398;2022-09-03T01:51:49;1.93;;;1.40;;
8592;SDS011;4334;49.982;8.398;2022-09-03T01:54:23;2.23;;;1.50;;
8592;SDS011;4334;49.982;8.398;2022-09-03T01:57:12;3.10;;;1.53;;
8592;SDS011;4334;49.982;8.398;2022-09-03T01:59:51;1.70;;;1.60;;
8592;SDS011;4334;49.982;8.398;2022-09-03T02:02:25;2.10;;;1.50;;
8592;SDS011;4334;49.982;8.398;2022-09-03T02:04:55;3.33;;;1.40;;
8592;SDS011;4334;49.982;8.398;2022-09-03T02:07:26;3.27;;;1.40;;
8592;SDS011;4334;49.982;8.398;2022-09-03T02:09:59;2.17;;;1.50;;
8592;SDS011;4334;49.982;8.398;2022-09-03T02:12:27;2.17;;;1.50;;
8592;SDS011;4334;49.982;8.398;2022-09-03T02:14:58;1.97;;;1.53;;
8592;SDS011;4334;49.982;8.398;2022-09-03T02:17:25;3.00;;;1.50;;
8592;SDS011;4334;49.982;8.398;2022-09-03T02:19:52;2.17;;;1.70;;
8592;SDS011;4334;49.982;8.398;2022-09-03T02:22:19;3.37;;;1.40;;
8592;SDS011;4334;49.982;8.398;2022-09-03T02:24:46;1.60;;;1.50;;
8592;SDS011;4334;49.982;8.398;2022-09-03T02:27:13;1.73;;;1.33;;
8592;SDS011;4334;49.982;8.398;2022-09-03T02:29:40;1.83;;;1.50;;
8592;SDS011;4334;49.982;8.398;2022-09-03T02:32:08;1.83;;;1.57;;
8592;SDS011;4334;49.982;8.398;2022-09-03T02:34:35;2.00;;;1.60;;
8592;SDS011;4334;49.982;8.398;2022-09-03T02:37:10;1.77;;;1.63;;
8592;SDS011;4334;49.982;8.398;2022-09-03T02:39:38;1.70;;;1.40;;
8592;SDS011;4334;49.982;8.398;2022-09-03T02:42:05;1.83;;;1.60;;
8592;SDS011;4334;49.982;8.398;2022-09-03T02:44:35;4.17;;;1.70;;
8592;SDS011;4334;49.982;8.398;2022-09-03T02:47:06;2.80;;;1.60;;
8592;SDS011;4334;49.982;8.398;2022-09-03T02:49:35;2.00;;;1.63;;
8592;SDS011;4334;49.982;8.398;2022-09-03T02:52:03;1.80;;;1.63;;
8592;SDS011;4334;49.982;8.398;2022-09-03T02:54:33;3.27;;;1.60;;
8592;SDS011;4334;49.982;8.398;2022-09-03T02:57:04;1.83;;;1.70;;
8592;SDS011;4334;49.982;8.398;2022-09-03T02:59:31;2.20;;;1.70;;
8592;SDS011;4334;49.982;8.398;2022-09-03T03:01:58;1.80;;;1.40;;
8592;SDS011;4334;49.982;8.398;2022-09-03T03:04:26;2.03;;;1.40;;
8592;SDS011;4334;49.982;8.398;2022-09-03T03:06:53;1.93;;;1.40;;
8592;SDS011;4334;49.982;8.398;2022-09-03T03:09:19;1.83;;;1.57;;
8592;SDS011;4334;49.982;8.398;2022-09-03T03:11:46;1.83;;;1.50;;
8592;SDS011;4334;49.982;8.398;2022-09-03T03:14:15;1.63;;;1.50;;
8592;SDS011;4334;49.982;8.398;2022-09-03T03:16:42;2.90;;;1.80;;
8592;SDS011;4334;49.982;8.398;2022-09-03T03:19:09;3.00;;;1.60;;
8592;SDS011;4334;49.982;8.398;2022-09-03T03:21:37;3.30;;;1.60;;
8592;SDS011;4334;49.982;8.398;2022-09-03T03:24:04;1.87;;;1.50;;
8592;SDS011;4334;49.982;8.398;2022-09-03T03:26:31;2.40;;;1.33;;
8592;SDS011;4334;49.982;8.398;2022-09-03T03:28:59;3.50;;;1.70;;
8592;SDS011;4334;49.982;8.398;2022-09-03T03:31:28;1.90;;;1.60;;
8592;SDS011;4334;49.982;8.398;2022-09-03T03:33:56;1.70;;;1.60;;
8592;SDS011;4334;49.982;8.398;2022-09-03T03:36:25;1.63;;;1.30;;
8592;SDS011;4334;49.982;8.398;2022-09-03T03:38:54;3.20;;;1.43;;
8592;SDS011;4334;49.982;8.398;2022-09-03T03:41:24;1.63;;;1.50;;
8592;SDS011;4334;49.982;8.398;2022-09-03T03:43:52;2.03;;;1.50;;
8592;SDS011;4334;49.982;8.398;2022-09-03T03:46:20;2.47;;;1.60;;
8592;SDS011;4334;49.982;8.398;2022-09-03T03:48:48;2.80;;;1.60;;
8592;SDS011;4334;49.982;8.398;2022-09-03T03:51:15;1.70;;;1.60;;
8592;SDS011;4334;49.982;8.398;2022-09-03T03:53:43;1.57;;;1.37;;
8592;SDS011;4334;49.982;8.398;2022-09-03T03:56:12;2.67;;;1.80;;
8592;SDS011;4334;49.982;8.398;2022-09-03T03:58:40;1.87;;;1.60;;
8592;SDS011;4334;49.982;8.398;2022-09-03T04:01:09;2.77;;;1.77;;
8592;SDS011;4334;49.982;8.398;2022-09-03T04:03:37;3.67;;;1.60;;
8592;SDS011;4334;49.982;8.398;2022-09-03T04:06:04;2.07;;;1.60;;
8592;SDS011;4334;49.982;8.398;2022-09-03T04:08:33;2.37;;;1.50;;
8592;SDS011;4334;49.982;8.398;2022-09-03T04:11:00;1.83;;;1.67;;
8592;SDS011;4334;49.982;8.398;2022-09-03T04:13:29;1.53;;;1.43;;
8592;SDS011;4334;49.982;8.398;2022-09-03T04:16:00;2.83;;;1.50;;
8592;SDS011;4334;49.982;8.398;2022-09-03T04:18:27;1.87;;;1.57;;
8592;SDS011;4334;49.982;8.398;2022-09-03T04:20:57;3.03;;;1.60;;
8592;SDS011;4334;49.982;8.398;2022-09-03T04:23:28;3.63;;;1.70;;
8592;SDS011;4334;49.982;8.398;2022-09-03T04:25:55;2.80;;;1.50;;
8592;SDS011;4334;49.982;8.398;2022-09-03T04:28:22;2.23;;;1.97;;
8592;SDS011;4334;49.982;8.398;2022-09-03T04:30:50;2.37;;;1.70;;
8592;SDS011;4334;49.982;8.398;2022-09-03T04:33:17;3.77;;;1.60;;
8592;SDS011;4334;49.982;8.398;2022-09-03T04:35:44;4.57;;;1.53;;
8592;SDS011;4334;49.982;8.398;2022-09-03T04:38:11;1.63;;;1.50;;
8592;SDS011;4334;49.982;8.398;2022-09-03T04:40:39;2.97;;;1.60;;
8592;SDS011;4334;49.982;8.398;2022-09-03T04:43:05;4.10;;;1.73;;
8592;SDS011;4334;49.982;8.398;2022-09-03T04:45:32;4.47;;;1.70;;
8592;SDS011;4334;49.982;8.398;2022-09-03T04:48:01;3.60;;;1.87;;
8592;SDS011;4334;49.982;8.398;2022-09-03T04:50:29;1.70;;;1.60;;
8592;SDS011;4334;49.982;8.398;2022-09-03T04:52:59;4.77;;;1.80;;
8592;SDS011;4334;49.982;8.398;2022-09-03T04:55:27;3.30;;;2.10;;
8592;SDS011;4334;49.982;8.398;2022-09-03T04:57:54;4.53;;;2.37;;
8592;SDS011;4334;49.982;8.398;2022-09-03T05:00:20;5.27;;;2.90;;
8592;SDS011;4334;49.982;8.398;2022-09-03T05:02:47;5.27;;;1.80;;
8592;SDS011;4334;49.982;8.398;2022-09-03T05:05:17;1.80;;;1.60;;
8592;SDS011;4334;49.982;8.398;2022-09-03T05:07:44;2.87;;;1.80;;
8592;SDS011;4334;49.982;8.398;2022-09-03T05:10:11;3.07;;;1.63;;
8592;SDS011;4334;49.982;8.398;2022-09-03T05:12:44;2.03;;;1.60;;
8592;SDS011;4334;49.982;8.398;2022-09-03T05:15:11;5.37;;;1.70;;
8592;SDS011;4334;49.982;8.398;2022-09-03T05:17:39;2.77;;;1.90;;
8592;SDS011;4334;49.982;8.398;2022-09-03T05:20:06;5.60;;;1.70;;
8592;SDS011;4334;49.982;8.398;2022-09-03T05:22:35;2.27;;;1.70;;
8592;SDS011;4334;49.982;8.398;2022-09-03T05:25:02;4.13;;;1.63;;
8592;SDS011;4334;49.982;8.398;2022-09-03T05:27:29;2.67;;;1.57;;
8592;SDS011;4334;49.982;8.398;2022-09-03T05:29:57;3.00;;;1.80;;
8592;SDS011;4334;49.982;8.398;2022-09-03T05:32:23;3.60;;;1.80;;
8592;SDS011;4334;49.982;8.398;2022-09-03T05:34:52;1.90;;;1.70;;
8592;SDS011;4334;49.982;8.398;2022-09-03T05:37:19;2.90;;;1.70;;
8592;SDS011;4334;49.982;8.398;2022-09-03T05:39:48;2.40;;;1.80;;
8592;SDS011;4334;49.982;8.398;2022-09-03T05:42:15;1.80;;;1.70;;
8592;SDS011;4334;49.982;8.398;2022-09-03T05:44:42;1.70;;;1.60;;
8592;SDS011;4334;49.982;8.398;2022-09-03T05:47:09;3.70;;;1.60;;
8592;SDS011;4334;49.982;8.398;2022-09-03T05:49:36;1.70;;;1.50;;
8592;SDS011;4334;49.982;8.398;2022-09-03T05:52:03;2.33;;;1.70;;
8592;SDS011;4334;49.982;8.398;2022-09-03T05:54:30;3.07;;;1.63;;
8592;SDS011;4334;49.982;8.398;2022-09-03T05:56:58;1.97;;;1.63;;
8592;SDS011;4334;49.982;8.398;2022-09-03T05:59:24;1.90;;;1.70;;
8592;SDS011;4334;49.982;8.398;2022-09-03T06:01:51;1.73;;;1.60;;
8592;SDS011;4334;49.982;8.398;2022-09-03T06:04:18;3.33;;;1.70;;
8592;SDS011;4334;49.982;8.398;2022-09-03T06:06:45;2.43;;;1.60;;
8592;SDS011;4334;49.982;8.398;2022-09-03T06:09:13;2.93;;;1.70;;
8592;SDS011;4334;49.982;8.398;2022-09-03T06:11:42;2.53;;;1.60;;
8592;SDS011;4334;49.982;8.398;2022-09-03T06:14:11;4.57;;;1.70;;
8592;SDS011;4334;49.982;8.398;2022-09-03T06:16:39;3.83;;;1.80;;
8592;SDS011;4334;49.982;8.398;2022-09-03T06:19:07;1.70;;;1.60;;
8592;SDS011;4334;49.982;8.398;2022-09-03T06:21:35;2.07;;;1.60;;
8592;SDS011;4334;49.982;8.398;2022-09-03T06:24:04;3.10;;;1.80;;
8592;SDS011;4334;49.982;8.398;2022-09-03T06:26:31;2.97;;;1.87;;
8592;SDS011;4334;49.982;8.398;2022-09-03T06:28:57;1.93;;;1.53;;
8592;SDS011;4334;49.982;8.398;2022-09-03T06:31:26;3.23;;;1.83;;
8592;SDS011;4334;49.982;8.398;2022-09-03T06:33:52;2.33;;;1.43;;
8592;SDS011;4334;49.982;8.398;2022-09-03T06:36:20;2.63;;;1.80;;
8592;SDS011;4334;49.982;8.398;2022-09-03T06:38:50;4.30;;;1.90;;
8592;SDS011;4334;49.982;8.398;2022-09-03T06:41:18;2.87;;;1.90;;
8592;SDS011;4334;49.982;8.398;2022-09-03T06:43:49;2.97;;;1.90;;
8592;SDS011;4334;49.982;8.398;2022-09-03T06:46:17;2.13;;;1.83;;
8592;SDS011;4334;49.982;8.398;2022-09-03T06:48:47;2.27;;;1.70;;
8592;SDS011;4334;49.982;8.398;2022-09-03T06:51:15;1.90;;;1.70;;
8592;SDS011;4334;49.982;8.398;2022-09-03T06:53:44;2.37;;;1.90;;
8592;SDS011;4334;49.982;8.398;2022-09-03T06:56:13;3.10;;;1.90;;
8592;SDS011;4334;49.982;8.398;2022-09-03T06:58:41;3.07;;;2.10;;
8592;SDS011;4334;49.982;8.398;2022-09-03T07:01:09;2.97;;;2.00;;
8592;SDS011;4334;49.982;8.398;2022-09-03T07:03:38;2.10;;;1.70;;
8592;SDS011;4334;49.982;8.398;2022-09-03T07:06:08;1.97;;;1.70;;
8592;SDS011;4334;49.982;8.398;2022-09-03T07:08:36;4.63;;;1.80;;
8592;SDS011;4334;49.982;8.398;2022-09-03T07:11:04;2.23;;;1.70;;
8592;SDS011;4334;49.982;8.398;2022-09-03T07:13:34;3.70;;;1.90;;
8592;SDS011;4334;49.982;8.398;2022-09-03T07:16:02;2.93;;;1.80;;
8592;SDS011;4334;49.982;8.398;2022-09-03T07:18:30;2.10;;;1.90;;
8592;SDS011;4334;49.982;8.398;2022-09-03T07:20:57;3.30;;;1.90;;
8592;SDS011;4334;49.982;8.398;2022-09-03T07:23:27;2.50;;;1.60;;
8592;SDS011;4334;49.982;8.398;2022-09-03T07:25:54;3.63;;;1.80;;
8592;SDS011;4334;49.982;8.398;2022-09-03T07:28:22;3.30;;;2.00;;
8592;SDS011;4334;49.982;8.398;2022-09-03T07:30:50;3.73;;;2.10;;
8592;SDS011;4334;49.982;8.398;2022-09-03T07:33:17;2.10;;;1.90;;
8592;SDS011;4334;49.982;8.398;2022-09-03T07:35:45;3.43;;;2.10;;
8592;SDS011;4334;49.982;8.398;2022-09-03T07:38:15;3.10;;;1.93;;
8592;SDS011;4334;49.982;8.398;2022-09-03T07:40:44;7.87;;;2.33;;
8592;SDS011;4334;49.982;8.398;2022-09-03T07:43:12;2.50;;;2.00;;
8592;SDS011;4334;49.982;8.398;2022-09-03T07:45:38;3.60;;;2.60;;
8592;SDS011;4334;49.982;8.398;2022-09-03T07:48:05;3.23;;;2.10;;
8592;SDS011;4334;49.982;8.398;2022-09-03T07:50:32;3.03;;;2.53;;
8592;SDS011;4334;49.982;8.398;2022-09-03T07:53:03;3.17;;;2.43;;
8592;SDS011;4334;49.982;8.398;2022-09-03T07:55:30;2.40;;;2.20;;
8592;SDS011;4334;49.982;8.398;2022-09-03T07:57:58;4.23;;;2.60;;
8592;SDS011;4334;49.982;8.398;2022-09-03T08:00:25;3.07;;;2.23;;
8592;SDS011;4334;49.982;8.398;2022-09-03T08:02:52;2.73;;;2.43;;
8592;SDS011;4334;49.982;8.398;2022-09-03T08:05:20;4.30;;;2.30;;
8592;SDS011;4334;49.982;8.398;2022-09-03T08:07:47;3.43;;;2.70;;
8592;SDS011;4334;49.982;8.398;2022-09-03T08:10:14;2.90;;;2.70;;
8592;SDS011;4334;49.982;8.398;2022-09-03T08:12:41;5.10;;;2.47;;
8592;SDS011;4334;49.982;8.398;2022-09-03T08:15:10;2.50;;;2.30;;
8592;SDS011;4334;49.982;8.398;2022-09-03T08:17:37;2.80;;;2.50;;
8592;SDS011;4334;49.982;8.398;2022-09-03T08:20:08;6.20;;;2.30;;
8592;SDS011;4334;49.982;8.398;2022-09-03T08:22:35;2.40;;;2.20;;
8592;SDS011;4334;49.982;8.398;2022-09-03T08:25:02;2.27;;;2.00;;
8592;SDS011;4334;49.982;8.398;2022-09-03T08:27:30;2.47;;;2.00;;
8592;SDS011;4334;49.982;8.398;2022-09-03T08:29:57;4.57;;;2.00;;
8592;SDS011;4334;49.982;8.398;2022-09-03T08:32:25;2.23;;;1.90;;
8592;SDS011;4334;49.982;8.398;2022-09-03T08:34:52;3.60;;;2.00;;
8592;SDS011;4334;49.982;8.398;2022-09-03T08:37:18;7.77;;;2.30;;
8592;SDS011;4334;49.982;8.398;2022-09-03T08:39:51;3.50;;;2.00;;
8592;SDS011;4334;49.982;8.398;2022-09-03T08:42:20;4.60;;;1.90;;
8592;SDS011;4334;49.982;8.398;2022-09-03T08:44:57;4.13;;;2.13;;
8592;SDS011;4334;49.982;8.398;2022-09-03T08:47:31;2.47;;;2.00;;
8592;SDS011;4334;49.982;8.398;2022-09-03T08:50:00;2.83;;;1.80;;
8592;SDS011;4334;49.982;8.398;2022-09-03T08:52:30;3.63;;;2.03;;
8592;SDS011;4334;49.982;8.398;2022-09-03T08:55:08;2.60;;;1.80;;
8592;SDS011;4334;49.982;8.398;2022-09-03T08:57:43;2.33;;;1.90;;
8592;SDS011;4334;49.982;8.398;2022-09-03T09:00:13;2.43;;;2.03;;
8592;SDS011;4334;49.982;8.398;2022-09-03T09:02:44;2.87;;;2.20;;
8592;SDS011;4334;49.982;8.398;2022-09-03T09:05:19;2.50;;;1.97;;
8592;SDS011;4334;49.982;8.398;2022-09-03T09:07:51;3.47;;;1.90;;
8592;SDS011;4334;49.982;8.398;2022-09-03T09:10:27;2.77;;;2.27;;
8592;SDS011;4334;49.982;8.398;2022-09-03T09:13:03;3.03;;;2.10;;
8592;SDS011;4334;49.982;8.398;2022-09-03T09:15:39;3.30;;;2.17;;
8592;SDS011;4334;49.982;8.398;2022-09-03T09:18:17;2.07;;;1.87;;
8592;SDS011;4334;49.982;8.398;2022-09-03T09:20:49;2.43;;;1.90;;
8592;SDS011;4334;49.982;8.398;2022-09-03T09:23:23;2.30;;;1.70;;
8592;SDS011;4334;49.982;8.398;2022-09-03T09:25:53;4.90;;;2.10;;
8592;SDS011;4334;49.982;8.398;2022-09-03T09:28:23;2.20;;;1.80;;
8592;SDS011;4334;49.982;8.398;2022-09-03T09:30:54;2.30;;;2.00;;
8592;SDS011;4334;49.982;8.398;2022-09-03T09:33:28;2.20;;;2.00;;
8592;SDS011;4334;49.982;8.398;2022-09-03T09:35:58;2.67;;;2.03;;
8592;SDS011;4334;49.982;8.398;2022-09-03T09:38:29;3.53;;;1.93;;
8592;SDS011;4334;49.982;8.398;2022-09-03T09:41:06;2.73;;;2.20;;
8592;SDS011;4334;49.982;8.398;2022-09-03T09:43:34;2.93;;;2.10;;
8592;SDS011;4334;49.982;8.398;2022-09-03T09:46:05;2.63;;;2.10;;
8592;SDS011;4334;49.982;8.398;2022-09-03T09:48:37;2.15;;;1.92;;
8592;SDS011;4334;49.982;8.398;2022-09-03T09:51:16;2.42;;;2.00;;
8592;SDS011;4334;49.982;8.398;2022-09-03T09:53:44;2.85;;;2.10;;
8592;SDS011;4334;49.982;8.398;2022-09-03T09:56:19;3.10;;;2.00;;
8592;SDS011;4334;49.982;8.398;2022-09-03T09:58:46;2.10;;;1.90;;
8592;SDS011;4334;49.982;8.398;2022-09-03T10:01:13;3.53;;;2.00;;
8592;SDS011;4334;49.982;8.398;2022-09-03T10:03:51;5.28;;;2.20;;
8592;SDS011;4334;49.982;8.398;2022-09-03T10:06:21;2.30;;;2.10;;
8592;SDS011;4334;49.982;8.398;2022-09-03T10:09:07;2.40;;;1.90;;
8592;SDS011;4334;49.982;8.398;2022-09-03T10:11:36;2.15;;;1.88;;
8592;SDS011;4334;49.982;8.398;2022-09-03T10:14:08;2.35;;;1.85;;
8592;SDS011;4334;49.982;8.398;2022-09-03T10:16:39;2.53;;;1.90;;
8592;SDS011;4334;49.982;8.398;2022-09-03T10:19:16;2.30;;;2.08;;
8592;SDS011;4334;49.982;8.398;2022-09-03T10:21:45;3.83;;;2.40;;
8592;SDS011;4334;49.982;8.398;2022-09-03T10:24:24;2.35;;;2.00;;
8592;SDS011;4334;49.982;8.398;2022-09-03T10:27:03;3.03;;;2.15;;
8592;SDS011;4334;49.982;8.398;2022-09-03T10:29:31;2.20;;;2.00;;
8592;SDS011;4334;49.982;8.398;2022-09-03T10:32:02;2.72;;;2.30;;
8592;SDS011;4334;49.982;8.398;2022-09-03T10:34:43;2.25;;;1.95;;
8592;SDS011;4334;49.982;8.398;2022-09-03T10:37:24;3.80;;;2.50;;
8592;SDS011;4334;49.982;8.398;2022-09-03T10:42:58;2.53;;;2.33;;
8592;SDS011;4334;49.982;8.398;2022-09-03T10:45:30;2.80;;;2.20;;
8592;SDS011;4334;49.982;8.398;2022-09-03T10:51:10;2.30;;;2.10;;
8592;SDS011;4334;49.982;8.398;2022-09-03T10:53:57;2.50;;;2.30;;
8592;SDS011;4334;49.982;8.398;2022-09-03T10:56:41;2.00;;;1.80;;
8592;SDS011;4334;49.982;8.398;2022-09-03T10:59:23;3.47;;;2.20;;
8592;SDS011;4334;49.982;8.398;2022-09-03T11:01:58;2.58;;;2.15;;
8592;SDS011;4334;49.982;8.398;2022-09-03T11:04:45;2.70;;;2.20;;
8592;SDS011;4334;49.982;8.398;2022-09-03T11:07:20;3.58;;;2.20;;
8592;SDS011;4334;49.982;8.398;2022-09-03T11:09:49;2.58;;;2.30;;
8592;SDS011;4334;49.982;8.398;2022-09-03T11:12:23;3.40;;;2.03;;
8592;SDS011;4334;49.982;8.398;2022-09-03T11:14:55;2.72;;;2.25;;
8592;SDS011;4334;49.982;8.398;2022-09-03T11:17:28;3.35;;;2.10;;
8592;SDS011;4334;49.982;8.398;2022-09-03T11:19:58;3.15;;;2.10;;
8592;SDS011;4334;49.982;8.398;2022-09-03T11:22:37;4.40;;;2.28;;
8592;SDS011;4334;49.982;8.398;2022-09-03T11:25:07;4.10;;;2.15;;
8592;SDS011;4334;49.982;8.398;2022-09-03T11:27:44;2.80;;;2.08;;
8592;SDS011;4334;49.982;8.398;2022-09-03T11:30:24;3.67;;;2.30;;
8592;SDS011;4334;49.982;8.398;2022-09-03T11:32:58;2.67;;;2.28;;
8592;SDS011;4334;49.982;8.398;2022-09-03T11:35:27;2.70;;;2.30;;
8592;SDS011;4334;49.982;8.398;2022-09-03T11:37:58;3.65;;;2.30;;
8592;SDS011;4334;49.982;8.398;2022-09-03T11:40:30;3.22;;;2.30;;
8592;SDS011;4334;49.982;8.398;2022-09-03T11:43:05;3.35;;;2.05;;
8592;SDS011;4334;49.982;8.398;2022-09-03T11:45:34;2.97;;;2.67;;
8592;SDS011;4334;49.982;8.398;2022-09-03T11:48:01;5.60;;;3.60;;
8592;SDS011;4334;49.982;8.398;2022-09-03T11:50:50;5.43;;;2.83;;
8592;SDS011;4334;49.982;8.398;2022-09-03T11:53:24;2.58;;;2.28;;
8592;SDS011;4334;49.982;8.398;2022-09-03T11:55:59;6.65;;;2.50;;
8592;SDS011;4334;49.982;8.398;2022-09-03T11:58:39;2.47;;;2.28;;
8592;SDS011;4334;49.982;8.398;2022-09-03T12:01:07;2.70;;;2.28;;
8592;SDS011;4334;49.982;8.398;2022-09-03T12:03:37;2.40;;;2.20;;
8592;SDS011;4334;49.982;8.398;2022-09-03T12:06:18;2.70;;;2.50;;
8592;SDS011;4334;49.982;8.398;2022-09-03T12:09:03;3.40;;;2.20;;
8592;SDS011;4334;49.982;8.398;2022-09-03T12:11:50;3.22;;;2.30;;
8592;SDS011;4334;49.982;8.398;2022-09-03T12:14:26;2.30;;;2.00;;
8592;SDS011;4334;49.982;8.398;2022-09-03T12:17:07;2.38;;;2.00;;
8592;SDS011;4334;49.982;8.398;2022-09-03T12:19:46;2.83;;;2.25;;
8592;SDS011;4334;49.982;8.398;2022-09-03T12:22:17;3.53;;;2.17;;
8592;SDS011;4334;49.982;8.398;2022-09-03T12:24:48;3.45;;;2.70;;
8592;SDS011;4334;49.982;8.398;2022-09-03T12:27:15;2.47;;;2.13;;
8592;SDS011;4334;49.982;8.398;2022-09-03T12:29:51;6.72;;;2.40;;
8592;SDS011;4334;49.982;8.398;2022-09-03T12:32:22;2.78;;;2.10;;
8592;SDS011;4334;49.982;8.398;2022-09-03T12:34:49;2.22;;;2.00;;
8592;SDS011;4334;49.982;8.398;2022-09-03T12:37:18;3.67;;;2.35;;
8592;SDS011;4334;49.982;8.398;2022-09-03T12:39:50;3.05;;;1.85;;
8592;SDS011;4334;49.982;8.398;2022-09-03T12:42:19;3.00;;;2.17;;
8592;SDS011;4334;49.982;8.398;2022-09-03T12:44:48;2.78;;;2.05;;
8592;SDS011;4334;49.982;8.398;2022-09-03T12:47:15;2.28;;;2.08;;
8592;SDS011;4334;49.982;8.398;2022-09-03T12:49:44;2.28;;;2.00;;
8592;SDS011;4334;49.982;8.398;2022-09-03T12:52:13;5.20;;;2.65;;
8592;SDS011;4334;49.982;8.398;2022-09-03T12:54:45;3.45;;;2.60;;
8592;SDS011;4334;49.982;8.398;2022-09-03T12:57:18;6.47;;;2.40;;
8592;SDS011;4334;49.982;8.398;2022-09-03T12:59:47;3.35;;;2.17;;
8592;SDS011;4334;49.982;8.398;2022-09-03T13:02:17;3.65;;;2.00;;
8592;SDS011;4334;49.982;8.398;2022-09-03T13:04:46;3.05;;;2.13;;
8592;SDS011;4334;49.982;8.398;2022-09-03T13:07:19;2.50;;;2.30;;
8592;SDS011;4334;49.982;8.398;2022-09-03T13:09:49;3.08;;;2.30;;
8592;SDS011;4334;49.982;8.398;2022-09-03T13:12:22;3.35;;;2.55;;
8592;SDS011;4334;49.982;8.398;2022-09-03T13:14:54;4.10;;;1.80;;
8592;SDS011;4334;49.982;8.398;2022-09-03T13:20:20;4.80;;;1.70;;
8592;SDS011;4334;49.982;8.398;2022-09-03T13:22:55;6.22;;;1.65;;
8592;SDS011;4334;49.982;8.398;2022-09-03T13:25:36;3.17;;;1.83;;
8592;SDS011;4334;49.982;8.398;2022-09-03T13:28:09;1.80;;;1.70;;
8592;SDS011;4334;49.982;8.398;2022-09-03T13:30:42;1.70;;;1.60;;
8592;SDS011;4334;49.982;8.398;2022-09-03T13:33:19;1.80;;;1.50;;
8592;SDS011;4334;49.982;8.398;2022-09-03T13:35:48;1.83;;;1.50;;
8592;SDS011;4334;49.982;8.398;2022-09-03T13:38:20;2.15;;;1.48;;
8592;SDS011;4334;49.982;8.398;2022-09-03T13:40:53;1.80;;;1.60;;
8592;SDS011;4334;49.982;8.398;2022-09-03T13:43:27;1.50;;;1.40;;
8592;SDS011;4334;49.982;8.398;2022-09-03T13:46:01;1.90;;;1.50;;
8592;SDS011;4334;49.982;8.398;2022-09-03T13:48:29;1.92;;;1.42;;
8592;SDS011;4334;49.982;8.398;2022-09-03T13:51:21;1.77;;;1.60;;
8592;SDS011;4334;49.982;8.398;2022-09-03T13:53:56;2.25;;;1.50;;
8592;SDS011;4334;49.982;8.398;2022-09-03T13:56:35;2.03;;;1.63;;
8592;SDS011;4334;49.982;8.398;2022-09-03T13:59:17;2.00;;;1.80;;
8592;SDS011;4334;49.982;8.398;2022-09-03T14:01:54;2.25;;;2.05;;
8592;SDS011;4334;49.982;8.398;2022-09-03T14:04:28;1.92;;;1.70;;
8592;SDS011;4334;49.982;8.398;2022-09-03T14:07:01;2.20;;;2.00;;
8592;SDS011;4334;49.982;8.398;2022-09-03T14:09:34;3.50;;;1.95;;
8592;SDS011;4334;49.982;8.398;2022-09-03T14:12:09;2.47;;;1.85;;
8592;SDS011;4334;49.982;8.398;2022-09-03T14:14:48;2.10;;;1.77;;
8592;SDS011;4334;49.982;8.398;2022-09-03T14:17:24;2.78;;;1.95;;
8592;SDS011;4334;49.982;8.398;2022-09-03T14:20:02;2.88;;;2.00;;
8592;SDS011;4334;49.982;8.398;2022-09-03T14:22:33;3.42;;;1.95;;
8592;SDS011;4334;49.982;8.398;2022-09-03T14:25:08;2.53;;;2.33;;
8592;SDS011;4334;49.982;8.398;2022-09-03T14:27:37;2.28;;;2.03;;
8592;SDS011;4334;49.982;8.398;2022-09-03T14:30:06;2.20;;;2.00;;
8592;SDS011;4334;49.982;8.398;2022-09-03T14:32:36;2.38;;;2.17;;
8592;SDS011;4334;49.982;8.398;2022-09-03T14:35:17;2.75;;;2.28;;
8592;SDS011;4334;49.982;8.398;2022-09-03T14:37:54;2.15;;;1.95;;
8592;SDS011;4334;49.982;8.398;2022-09-03T14:40:25;5.05;;;2.17;;
8592;SDS011;4334;49.982;8.398;2022-09-03T14:42:59;2.53;;;2.05;;
8592;SDS011;4334;49.982;8.398;2022-09-03T14:45:40;2.42;;;2.15;;
8592;SDS011;4334;49.982;8.398;2022-09-03T14:50:56;2.40;;;2.20;;
8592;SDS011;4334;49.982;8.398;2022-09-03T14:53:35;2.30;;;2.10;;
8592;SDS011;4334;49.982;8.398;2022-09-03T14:56:16;3.60;;;1.92;;
8592;SDS011;4334;49.982;8.398;2022-09-03T14:58:59;2.40;;;2.10;;
8592;SDS011;4334;49.982;8.398;2022-09-03T15:01:32;3.35;;;2.03;;
8592;SDS011;4334;49.982;8.398;2022-09-03T15:06:59;2.33;;;1.92;;
8592;SDS011;4334;49.982;8.398;2022-09-03T15:09:30;2.20;;;2.00;;
8592;SDS011;4334;49.982;8.398;2022-09-03T15:11:59;2.53;;;2.33;;
8592;SDS011;4334;49.982;8.398;2022-09-03T15:14:29;2.20;;;2.00;;
8592;SDS011;4334;49.982;8.398;2022-09-03T15:17:14;2.75;;;2.33;;
8592;SDS011;4334;49.982;8.398;2022-09-03T15:19:48;3.05;;;2.10;;
8592;SDS011;4334;49.982;8.398;2022-09-03T15:22:23;2.42;;;2.22;;
8592;SDS011;4334;49.982;8.398;2022-09-03T15:24:52;2.28;;;2.00;;
8592;SDS011;4334;49.982;8.398;2022-09-03T15:27:28;4.35;;;2.17;;
8592;SDS011;4334;49.982;8.398;2022-09-03T15:29:57;2.30;;;2.10;;
8592;SDS011;4334;49.982;8.398;2022-09-03T15:32:37;3.45;;;1.92;;
8592;SDS011;4334;49.982;8.398;2022-09-03T15:35:09;2.53;;;1.90;;
8592;SDS011;4334;49.982;8.398;2022-09-03T15:37:42;2.10;;;1.90;;
8592;SDS011;4334;49.982;8.398;2022-09-03T15:40:15;3.60;;;2.10;;
8592;SDS011;4334;49.982;8.398;2022-09-03T15:42:45;2.55;;;2.00;;
8592;SDS011;4334;49.982;8.398;2022-09-03T15:45:15;2.58;;;2.00;;
8592;SDS011;4334;49.982;8.398;2022-09-03T15:47:49;2.50;;;2.30;;
8592;SDS011;4334;49.982;8.398;2022-09-03T15:50:24;2.80;;;2.25;;
8592;SDS011;4334;49.982;8.398;2022-09-03T15:52:53;2.35;;;2.15;;
8592;SDS011;4334;49.982;8.398;2022-09-03T15:55:25;2.75;;;2.20;;